Main page
METAR-TAF:

METAR-TAF

Airports :

El Edén International Airport

Armenia, Colombia

latitude: 04-30N, longitude: 075-43W, elevation: 1204 m

Current weather observation

The report was made 1 hour and 16 minutes ago, at 11:00 UTC
Wind 7 kt from the Northeast
Temperature 19°C
Humidity 94%
Pressure 1017 hPa
Visibility: 2000 m
Few clouds at a height of 400 ft, Cumulonimbus.
Broken clouds at a height of 600 ft
drizzle

METAR: SKAR 011100Z 04007KT 2000 DZ FEW004CB BKN006 19/18 A3003 RMK CB/N

Time: 07:16 (12:16 UTC)


TAF: missing

Weather observations and forecasts of more than 4000 airports (METAR and TAF reports).

The available stations are represented by yellow and red dots on the map.

Hover mouse over dot to see the name of the station.

Then click to see weather observations and forecasts.

To change the map : click on the green buttons with a black cross to zoom in, on the green button with a dash to zoom out, or on the green arrows for adjacent maps.


METAR-TAF: